sensor_id;sensor_type;location;lat;lon;timestamp;P1;durP1;ratioP1;P2;durP2;ratioP2
5349;SDS011;2697;42.144;24.794;2022-10-23T00:00:20;39.30;;;17.20;;
5349;SDS011;2697;42.144;24.794;2022-10-23T00:02:50;30.10;;;15.60;;
5349;SDS011;2697;42.144;24.794;2022-10-23T00:05:17;36.67;;;16.20;;
5349;SDS011;2697;42.144;24.794;2022-10-23T00:07:42;36.30;;;16.80;;
5349;SDS011;2697;42.144;24.794;2022-10-23T00:10:08;38.20;;;15.70;;
5349;SDS011;2697;42.144;24.794;2022-10-23T00:12:34;41.70;;;16.43;;
5349;SDS011;2697;42.144;24.794;2022-10-23T00:15:00;38.27;;;17.83;;
5349;SDS011;2697;42.144;24.794;2022-10-23T00:17:25;38.73;;;16.03;;
5349;SDS011;2697;42.144;24.794;2022-10-23T00:19:50;32.97;;;17.63;;
5349;SDS011;2697;42.144;24.794;2022-10-23T00:22:16;40.57;;;18.63;;
5349;SDS011;2697;42.144;24.794;2022-10-23T00:24:41;40.93;;;18.30;;
5349;SDS011;2697;42.144;24.794;2022-10-23T00:27:07;34.23;;;16.90;;
5349;SDS011;2697;42.144;24.794;2022-10-23T00:29:32;42.10;;;16.97;;
5349;SDS011;2697;42.144;24.794;2022-10-23T00:31:58;33.03;;;18.40;;
5349;SDS011;2697;42.144;24.794;2022-10-23T00:34:23;32.13;;;16.17;;
5349;SDS011;2697;42.144;24.794;2022-10-23T00:36:48;31.20;;;16.70;;
5349;SDS011;2697;42.144;24.794;2022-10-23T00:39:14;29.70;;;16.50;;
5349;SDS011;2697;42.144;24.794;2022-10-23T00:41:39;27.73;;;15.80;;
5349;SDS011;2697;42.144;24.794;2022-10-23T00:46:53;31.87;;;17.03;;
5349;SDS011;2697;42.144;24.794;2022-10-23T00:49:19;45.43;;;17.57;;
5349;SDS011;2697;42.144;24.794;2022-10-23T00:52:04;48.30;;;16.67;;
5349;SDS011;2697;42.144;24.794;2022-10-23T00:54:33;32.10;;;15.80;;
5349;SDS011;2697;42.144;24.794;2022-10-23T00:57:02;41.37;;;17.50;;
5349;SDS011;2697;42.144;24.794;2022-10-23T00:59:30;29.47;;;14.53;;
5349;SDS011;2697;42.144;24.794;2022-10-23T01:01:57;40.67;;;15.80;;
5349;SDS011;2697;42.144;24.794;2022-10-23T01:04:23;33.20;;;15.53;;
5349;SDS011;2697;42.144;24.794;2022-10-23T01:06:52;35.27;;;16.40;;
5349;SDS011;2697;42.144;24.794;2022-10-23T01:11:56;30.70;;;16.70;;
5349;SDS011;2697;42.144;24.794;2022-10-23T01:22:49;39.53;;;14.63;;
5349;SDS011;2697;42.144;24.794;2022-10-23T01:31:13;42.43;;;15.40;;
5349;SDS011;2697;42.144;24.794;2022-10-23T01:33:44;35.03;;;16.50;;
5349;SDS011;2697;42.144;24.794;2022-10-23T01:36:16;29.37;;;14.13;;
5349;SDS011;2697;42.144;24.794;2022-10-23T01:38:54;25.57;;;14.50;;
5349;SDS011;2697;42.144;24.794;2022-10-23T01:41:36;34.53;;;15.33;;
5349;SDS011;2697;42.144;24.794;2022-10-23T01:46:37;33.53;;;15.20;;
5349;SDS011;2697;42.144;24.794;2022-10-23T01:49:05;43.70;;;15.20;;
5349;SDS011;2697;42.144;24.794;2022-10-23T01:51:33;29.00;;;15.23;;
5349;SDS011;2697;42.144;24.794;2022-10-23T01:54:01;33.87;;;16.23;;
5349;SDS011;2697;42.144;24.794;2022-10-23T01:56:32;21.33;;;12.57;;
5349;SDS011;2697;42.144;24.794;2022-10-23T01:59:04;38.47;;;13.63;;
5349;SDS011;2697;42.144;24.794;2022-10-23T02:01:33;25.10;;;11.47;;
5349;SDS011;2697;42.144;24.794;2022-10-23T02:04:02;28.87;;;14.20;;
5349;SDS011;2697;42.144;24.794;2022-10-23T02:06:30;22.80;;;12.60;;
5349;SDS011;2697;42.144;24.794;2022-10-23T02:08:56;25.17;;;13.43;;
5349;SDS011;2697;42.144;24.794;2022-10-23T02:11:21;39.53;;;13.33;;
5349;SDS011;2697;42.144;24.794;2022-10-23T02:13:55;21.67;;;12.53;;
5349;SDS011;2697;42.144;24.794;2022-10-23T02:16:45;24.00;;;11.77;;
5349;SDS011;2697;42.144;24.794;2022-10-23T02:22:12;29.23;;;14.27;;
5349;SDS011;2697;42.144;24.794;2022-10-23T02:24:49;24.40;;;13.43;;
5349;SDS011;2697;42.144;24.794;2022-10-23T02:27:29;24.00;;;12.37;;
5349;SDS011;2697;42.144;24.794;2022-10-23T02:30:08;20.30;;;12.20;;
5349;SDS011;2697;42.144;24.794;2022-10-23T02:32:38;40.23;;;15.43;;
5349;SDS011;2697;42.144;24.794;2022-10-23T02:35:08;24.80;;;12.20;;
5349;SDS011;2697;42.144;24.794;2022-10-23T02:37:34;29.43;;;14.63;;
5349;SDS011;2697;42.144;24.794;2022-10-23T02:40:00;33.80;;;13.63;;
5349;SDS011;2697;42.144;24.794;2022-10-23T02:42:33;28.63;;;14.17;;
5349;SDS011;2697;42.144;24.794;2022-10-23T02:47:47;24.37;;;13.50;;
5349;SDS011;2697;42.144;24.794;2022-10-23T02:53:04;55.13;;;24.20;;
5349;SDS011;2697;42.144;24.794;2022-10-23T03:00:32;78.80;;;39.93;;
5349;SDS011;2697;42.144;24.794;2022-10-23T03:03:02;57.07;;;29.97;;
5349;SDS011;2697;42.144;24.794;2022-10-23T03:05:35;56.03;;;32.53;;
5349;SDS011;2697;42.144;24.794;2022-10-23T03:08:04;49.40;;;25.57;;
5349;SDS011;2697;42.144;24.794;2022-10-23T03:10:30;59.50;;;23.23;;
5349;SDS011;2697;42.144;24.794;2022-10-23T03:12:56;36.57;;;19.07;;
5349;SDS011;2697;42.144;24.794;2022-10-23T03:15:21;41.33;;;16.00;;
5349;SDS011;2697;42.144;24.794;2022-10-23T03:17:46;31.50;;;17.00;;
5349;SDS011;2697;42.144;24.794;2022-10-23T03:20:12;42.20;;;15.87;;
5349;SDS011;2697;42.144;24.794;2022-10-23T03:22:38;41.17;;;22.20;;
5349;SDS011;2697;42.144;24.794;2022-10-23T03:25:04;63.57;;;20.83;;
5349;SDS011;2697;42.144;24.794;2022-10-23T03:27:29;48.10;;;21.50;;
5349;SDS011;2697;42.144;24.794;2022-10-23T03:29:55;52.87;;;23.47;;
5349;SDS011;2697;42.144;24.794;2022-10-23T03:32:20;53.47;;;23.17;;
5349;SDS011;2697;42.144;24.794;2022-10-23T03:34:46;40.70;;;18.93;;
5349;SDS011;2697;42.144;24.794;2022-10-23T03:37:11;40.87;;;20.20;;
5349;SDS011;2697;42.144;24.794;2022-10-23T03:39:37;41.00;;;19.03;;
5349;SDS011;2697;42.144;24.794;2022-10-23T03:42:02;33.33;;;18.83;;
5349;SDS011;2697;42.144;24.794;2022-10-23T03:44:28;44.17;;;18.80;;
5349;SDS011;2697;42.144;24.794;2022-10-23T03:46:55;38.27;;;17.60;;
5349;SDS011;2697;42.144;24.794;2022-10-23T03:49:21;41.80;;;19.13;;
5349;SDS011;2697;42.144;24.794;2022-10-23T03:51:46;38.13;;;18.47;;
5349;SDS011;2697;42.144;24.794;2022-10-23T03:54:17;35.43;;;18.00;;
5349;SDS011;2697;42.144;24.794;2022-10-23T03:56:43;37.13;;;16.43;;
5349;SDS011;2697;42.144;24.794;2022-10-23T03:59:09;35.23;;;16.40;;
5349;SDS011;2697;42.144;24.794;2022-10-23T04:01:34;47.13;;;17.87;;
5349;SDS011;2697;42.144;24.794;2022-10-23T04:03:59;42.43;;;17.53;;
5349;SDS011;2697;42.144;24.794;2022-10-23T04:06:25;36.73;;;17.47;;
5349;SDS011;2697;42.144;24.794;2022-10-23T04:08:50;36.60;;;16.17;;
5349;SDS011;2697;42.144;24.794;2022-10-23T04:11:15;36.23;;;16.00;;
5349;SDS011;2697;42.144;24.794;2022-10-23T04:13:41;38.43;;;16.40;;
5349;SDS011;2697;42.144;24.794;2022-10-23T04:16:06;35.60;;;17.77;;
5349;SDS011;2697;42.144;24.794;2022-10-23T04:18:31;34.60;;;15.47;;
5349;SDS011;2697;42.144;24.794;2022-10-23T04:20:57;24.77;;;14.10;;
5349;SDS011;2697;42.144;24.794;2022-10-23T04:23:22;31.93;;;13.90;;
5349;SDS011;2697;42.144;24.794;2022-10-23T04:25:47;28.93;;;13.37;;
5349;SDS011;2697;42.144;24.794;2022-10-23T04:28:13;42.67;;;12.80;;
5349;SDS011;2697;42.144;24.794;2022-10-23T04:30:38;24.20;;;11.63;;
5349;SDS011;2697;42.144;24.794;2022-10-23T04:33:04;26.90;;;11.00;;
5349;SDS011;2697;42.144;24.794;2022-10-23T04:35:30;24.17;;;11.60;;
5349;SDS011;2697;42.144;24.794;2022-10-23T04:37:56;28.23;;;11.77;;
5349;SDS011;2697;42.144;24.794;2022-10-23T04:40:21;33.00;;;11.30;;
5349;SDS011;2697;42.144;24.794;2022-10-23T04:42:46;22.63;;;10.43;;
5349;SDS011;2697;42.144;24.794;2022-10-23T04:45:12;40.70;;;14.83;;
5349;SDS011;2697;42.144;24.794;2022-10-23T04:47:37;27.70;;;15.27;;
5349;SDS011;2697;42.144;24.794;2022-10-23T04:50:02;30.37;;;13.93;;
5349;SDS011;2697;42.144;24.794;2022-10-23T04:52:28;27.87;;;15.00;;
5349;SDS011;2697;42.144;24.794;2022-10-23T04:54:53;43.83;;;16.50;;
5349;SDS011;2697;42.144;24.794;2022-10-23T04:57:19;39.63;;;14.83;;
5349;SDS011;2697;42.144;24.794;2022-10-23T04:59:44;27.53;;;13.47;;
5349;SDS011;2697;42.144;24.794;2022-10-23T05:02:09;38.93;;;14.33;;
5349;SDS011;2697;42.144;24.794;2022-10-23T05:04:35;32.43;;;11.20;;
5349;SDS011;2697;42.144;24.794;2022-10-23T05:07:00;24.00;;;11.80;;
5349;SDS011;2697;42.144;24.794;2022-10-23T05:09:26;24.13;;;11.80;;
5349;SDS011;2697;42.144;24.794;2022-10-23T05:11:51;23.53;;;10.17;;
5349;SDS011;2697;42.144;24.794;2022-10-23T05:14:16;27.17;;;9.33;;
5349;SDS011;2697;42.144;24.794;2022-10-23T05:19:13;22.67;;;8.10;;
5349;SDS011;2697;42.144;24.794;2022-10-23T05:21:44;19.80;;;8.03;;
5349;SDS011;2697;42.144;24.794;2022-10-23T05:24:12;16.23;;;6.10;;
5349;SDS011;2697;42.144;24.794;2022-10-23T05:26:38;30.30;;;6.60;;
5349;SDS011;2697;42.144;24.794;2022-10-23T05:29:03;13.40;;;5.57;;
5349;SDS011;2697;42.144;24.794;2022-10-23T05:31:28;21.23;;;5.50;;
5349;SDS011;2697;42.144;24.794;2022-10-23T05:33:54;18.57;;;5.37;;
5349;SDS011;2697;42.144;24.794;2022-10-23T05:36:20;16.97;;;6.53;;
5349;SDS011;2697;42.144;24.794;2022-10-23T05:38:47;14.67;;;5.97;;
5349;SDS011;2697;42.144;24.794;2022-10-23T05:41:13;22.30;;;5.93;;
5349;SDS011;2697;42.144;24.794;2022-10-23T05:43:38;23.60;;;4.73;;
5349;SDS011;2697;42.144;24.794;2022-10-23T05:46:04;16.40;;;4.77;;
5349;SDS011;2697;42.144;24.794;2022-10-23T05:48:30;21.73;;;5.17;;
5349;SDS011;2697;42.144;24.794;2022-10-23T05:51:04;11.80;;;5.00;;
5349;SDS011;2697;42.144;24.794;2022-10-23T05:53:31;9.17;;;3.80;;
5349;SDS011;2697;42.144;24.794;2022-10-23T05:56:02;23.50;;;4.33;;
5349;SDS011;2697;42.144;24.794;2022-10-23T05:58:28;17.20;;;6.47;;
5349;SDS011;2697;42.144;24.794;2022-10-23T06:00:54;20.23;;;4.53;;
5349;SDS011;2697;42.144;24.794;2022-10-23T06:03:19;8.70;;;3.93;;
5349;SDS011;2697;42.144;24.794;2022-10-23T06:05:49;10.20;;;4.60;;
5349;SDS011;2697;42.144;24.794;2022-10-23T06:08:15;14.20;;;4.63;;
5349;SDS011;2697;42.144;24.794;2022-10-23T06:10:40;11.33;;;3.80;;
5349;SDS011;2697;42.144;24.794;2022-10-23T06:13:05;12.20;;;3.87;;
5349;SDS011;2697;42.144;24.794;2022-10-23T06:15:31;11.50;;;4.63;;
5349;SDS011;2697;42.144;24.794;2022-10-23T06:17:59;16.23;;;5.13;;
5349;SDS011;2697;42.144;24.794;2022-10-23T06:20:26;10.67;;;4.57;;
5349;SDS011;2697;42.144;24.794;2022-10-23T06:22:51;11.00;;;4.23;;
5349;SDS011;2697;42.144;24.794;2022-10-23T06:25:17;16.03;;;6.03;;
5349;SDS011;2697;42.144;24.794;2022-10-23T06:27:42;13.33;;;3.63;;
5349;SDS011;2697;42.144;24.794;2022-10-23T06:30:07;15.20;;;4.43;;
5349;SDS011;2697;42.144;24.794;2022-10-23T06:32:33;15.40;;;4.80;;
5349;SDS011;2697;42.144;24.794;2022-10-23T06:34:58;18.50;;;5.90;;
5349;SDS011;2697;42.144;24.794;2022-10-23T06:37:24;87.50;;;5.40;;
5349;SDS011;2697;42.144;24.794;2022-10-23T06:39:49;35.07;;;5.60;;
5349;SDS011;2697;42.144;24.794;2022-10-23T06:42:15;17.93;;;5.00;;
5349;SDS011;2697;42.144;24.794;2022-10-23T06:44:40;12.70;;;4.63;;
5349;SDS011;2697;42.144;24.794;2022-10-23T06:47:05;15.40;;;4.17;;
5349;SDS011;2697;42.144;24.794;2022-10-23T06:49:31;12.33;;;4.43;;
5349;SDS011;2697;42.144;24.794;2022-10-23T06:51:56;16.53;;;5.47;;
5349;SDS011;2697;42.144;24.794;2022-10-23T06:54:21;19.77;;;6.07;;
5349;SDS011;2697;42.144;24.794;2022-10-23T06:56:47;16.73;;;5.50;;
5349;SDS011;2697;42.144;24.794;2022-10-23T06:59:12;18.33;;;6.17;;
5349;SDS011;2697;42.144;24.794;2022-10-23T07:01:38;14.00;;;4.73;;
5349;SDS011;2697;42.144;24.794;2022-10-23T07:04:03;16.07;;;5.17;;
5349;SDS011;2697;42.144;24.794;2022-10-23T07:06:29;16.33;;;5.30;;
5349;SDS011;2697;42.144;24.794;2022-10-23T07:08:54;21.50;;;4.70;;
5349;SDS011;2697;42.144;24.794;2022-10-23T07:11:20;20.53;;;8.80;;
5349;SDS011;2697;42.144;24.794;2022-10-23T07:13:45;41.03;;;9.07;;
5349;SDS011;2697;42.144;24.794;2022-10-23T07:16:14;35.90;;;11.90;;
5349;SDS011;2697;42.144;24.794;2022-10-23T07:18:47;26.53;;;12.10;;
5349;SDS011;2697;42.144;24.794;2022-10-23T07:21:14;36.03;;;13.43;;
5349;SDS011;2697;42.144;24.794;2022-10-23T07:23:39;34.00;;;11.20;;
5349;SDS011;2697;42.144;24.794;2022-10-23T07:26:05;27.03;;;10.20;;
5349;SDS011;2697;42.144;24.794;2022-10-23T07:28:33;17.93;;;7.33;;
5349;SDS011;2697;42.144;24.794;2022-10-23T07:31:00;24.37;;;7.47;;
5349;SDS011;2697;42.144;24.794;2022-10-23T07:33:25;18.87;;;5.53;;
5349;SDS011;2697;42.144;24.794;2022-10-23T07:35:51;23.87;;;5.33;;
5349;SDS011;2697;42.144;24.794;2022-10-23T07:38:16;21.73;;;4.90;;
5349;SDS011;2697;42.144;24.794;2022-10-23T07:40:42;23.50;;;4.77;;
5349;SDS011;2697;42.144;24.794;2022-10-23T07:43:08;13.97;;;5.00;;
5349;SDS011;2697;42.144;24.794;2022-10-23T07:45:33;16.70;;;6.33;;
5349;SDS011;2697;42.144;24.794;2022-10-23T07:47:59;13.93;;;5.00;;
5349;SDS011;2697;42.144;24.794;2022-10-23T07:50:24;25.33;;;5.77;;
5349;SDS011;2697;42.144;24.794;2022-10-23T07:52:49;17.47;;;5.70;;
5349;SDS011;2697;42.144;24.794;2022-10-23T07:55:15;13.00;;;5.03;;
5349;SDS011;2697;42.144;24.794;2022-10-23T07:57:41;29.17;;;5.57;;
5349;SDS011;2697;42.144;24.794;2022-10-23T08:00:06;12.97;;;4.73;;
5349;SDS011;2697;42.144;24.794;2022-10-23T08:02:33;15.30;;;4.93;;
5349;SDS011;2697;42.144;24.794;2022-10-23T08:04:59;26.20;;;5.10;;
5349;SDS011;2697;42.144;24.794;2022-10-23T08:07:24;27.70;;;4.53;;
5349;SDS011;2697;42.144;24.794;2022-10-23T08:09:49;59.33;;;6.10;;
5349;SDS011;2697;42.144;24.794;2022-10-23T08:12:15;11.43;;;4.13;;
5349;SDS011;2697;42.144;24.794;2022-10-23T08:14:40;24.13;;;5.77;;
5349;SDS011;2697;42.144;24.794;2022-10-23T08:17:06;19.57;;;4.97;;
5349;SDS011;2697;42.144;24.794;2022-10-23T08:19:33;36.70;;;4.63;;
5349;SDS011;2697;42.144;24.794;2022-10-23T08:21:59;42.20;;;5.57;;
5349;SDS011;2697;42.144;24.794;2022-10-23T08:24:25;21.73;;;3.60;;
5349;SDS011;2697;42.144;24.794;2022-10-23T08:26:50;19.83;;;3.50;;
5349;SDS011;2697;42.144;24.794;2022-10-23T08:29:16;31.97;;;6.07;;
5349;SDS011;2697;42.144;24.794;2022-10-23T08:31:41;20.50;;;3.73;;
5349;SDS011;2697;42.144;24.794;2022-10-23T08:34:12;55.50;;;5.00;;
5349;SDS011;2697;42.144;24.794;2022-10-23T08:36:37;25.97;;;5.10;;
5349;SDS011;2697;42.144;24.794;2022-10-23T08:39:03;28.53;;;4.80;;
5349;SDS011;2697;42.144;24.794;2022-10-23T08:41:31;17.63;;;5.10;;
5349;SDS011;2697;42.144;24.794;2022-10-23T08:46:27;11.50;;;3.80;;
5349;SDS011;2697;42.144;24.794;2022-10-23T08:48:58;10.80;;;4.90;;
5349;SDS011;2697;42.144;24.794;2022-10-23T08:51:40;17.10;;;3.60;;
5349;SDS011;2697;42.144;24.794;2022-10-23T08:56:47;35.07;;;3.80;;
5349;SDS011;2697;42.144;24.794;2022-10-23T09:02:01;27.83;;;4.50;;
5349;SDS011;2697;42.144;24.794;2022-10-23T09:04:35;12.50;;;3.30;;
5349;SDS011;2697;42.144;24.794;2022-10-23T09:09:57;28.10;;;3.30;;
5349;SDS011;2697;42.144;24.794;2022-10-23T09:12:28;17.60;;;4.20;;
5349;SDS011;2697;42.144;24.794;2022-10-23T09:22:59;18.77;;;3.23;;
5349;SDS011;2697;42.144;24.794;2022-10-23T09:25:30;7.73;;;1.80;;
5349;SDS011;2697;42.144;24.794;2022-10-23T09:27:59;7.73;;;2.57;;
5349;SDS011;2697;42.144;24.794;2022-10-23T09:32:56;5.07;;;2.20;;
5349;SDS011;2697;42.144;24.794;2022-10-23T09:35:22;13.70;;;6.17;;
5349;SDS011;2697;42.144;24.794;2022-10-23T09:37:49;38.07;;;4.53;;
5349;SDS011;2697;42.144;24.794;2022-10-23T09:43:02;4.67;;;2.07;;
5349;SDS011;2697;42.144;24.794;2022-10-23T09:45:37;6.20;;;3.07;;
5349;SDS011;2697;42.144;24.794;2022-10-23T09:48:18;7.43;;;2.90;;
5349;SDS011;2697;42.144;24.794;2022-10-23T09:50:48;8.73;;;2.53;;
5349;SDS011;2697;42.144;24.794;2022-10-23T09:53:18;7.30;;;2.57;;
5349;SDS011;2697;42.144;24.794;2022-10-23T09:58:53;5.57;;;2.50;;
5349;SDS011;2697;42.144;24.794;2022-10-23T10:01:31;13.57;;;4.00;;
5349;SDS011;2697;42.144;24.794;2022-10-23T10:04:00;19.07;;;3.20;;
5349;SDS011;2697;42.144;24.794;2022-10-23T10:06:27;11.57;;;1.90;;
5349;SDS011;2697;42.144;24.794;2022-10-23T10:08:56;10.20;;;2.63;;
5349;SDS011;2697;42.144;24.794;2022-10-23T10:11:33;5.27;;;2.20;;
5349;SDS011;2697;42.144;24.794;2022-10-23T10:14:11;11.33;;;2.60;;
5349;SDS011;2697;42.144;24.794;2022-10-23T10:19:35;5.90;;;3.00;;
5349;SDS011;2697;42.144;24.794;2022-10-23T10:27:30;5.93;;;2.27;;
5349;SDS011;2697;42.144;24.794;2022-10-23T10:32:27;5.83;;;2.63;;
5349;SDS011;2697;42.144;24.794;2022-10-23T10:35:09;8.57;;;2.23;;
5349;SDS011;2697;42.144;24.794;2022-10-23T10:40:15;16.67;;;2.20;;
5349;SDS011;2697;42.144;24.794;2022-10-23T10:45:38;14.47;;;2.63;;
5349;SDS011;2697;42.144;24.794;2022-10-23T10:51:17;10.03;;;2.67;;
5349;SDS011;2697;42.144;24.794;2022-10-23T10:56:28;18.67;;;3.03;;
5349;SDS011;2697;42.144;24.794;2022-10-23T10:59:01;23.07;;;4.50;;
5349;SDS011;2697;42.144;24.794;2022-10-23T11:10:18;3.40;;;1.83;;
5349;SDS011;2697;42.144;24.794;2022-10-23T11:12:44;6.20;;;2.50;;
5349;SDS011;2697;42.144;24.794;2022-10-23T11:15:15;5.93;;;2.27;;
5349;SDS011;2697;42.144;24.794;2022-10-23T11:17:50;6.23;;;1.70;;
5349;SDS011;2697;42.144;24.794;2022-10-23T11:26:03;2.20;;;1.50;;
5349;SDS011;2697;42.144;24.794;2022-10-23T11:41:57;9.40;;;2.60;;
5349;SDS011;2697;42.144;24.794;2022-10-23T11:47:00;6.20;;;2.70;;
5349;SDS011;2697;42.144;24.794;2022-10-23T11:49:27;3.50;;;2.30;;
5349;SDS011;2697;42.144;24.794;2022-10-23T11:52:00;4.03;;;2.20;;
5349;SDS011;2697;42.144;24.794;2022-10-23T11:54:26;15.00;;;2.63;;
5349;SDS011;2697;42.144;24.794;2022-10-23T12:01:55;11.03;;;2.53;;
5349;SDS011;2697;42.144;24.794;2022-10-23T12:06:51;5.57;;;2.17;;
5349;SDS011;2697;42.144;24.794;2022-10-23T12:12:01;4.17;;;2.00;;
5349;SDS011;2697;42.144;24.794;2022-10-23T12:19:47;6.90;;;2.00;;
5349;SDS011;2697;42.144;24.794;2022-10-23T12:22:14;7.50;;;3.80;;
5349;SDS011;2697;42.144;24.794;2022-10-23T12:24:59;29.97;;;3.67;;
5349;SDS011;2697;42.144;24.794;2022-10-23T12:27:36;12.30;;;2.00;;
5349;SDS011;2697;42.144;24.794;2022-10-23T12:30:18;6.57;;;2.13;;
5349;SDS011;2697;42.144;24.794;2022-10-23T12:35:41;3.53;;;1.87;;
5349;SDS011;2697;42.144;24.794;2022-10-23T12:38:40;8.40;;;2.23;;
5349;SDS011;2697;42.144;24.794;2022-10-23T12:41:12;6.53;;;1.97;;
5349;SDS011;2697;42.144;24.794;2022-10-23T12:43:55;3.60;;;1.70;;
5349;SDS011;2697;42.144;24.794;2022-10-23T12:49:00;3.03;;;1.70;;
5349;SDS011;2697;42.144;24.794;2022-10-23T12:51:28;6.40;;;2.10;;
5349;SDS011;2697;42.144;24.794;2022-10-23T12:53:59;4.50;;;2.60;;
5349;SDS011;2697;42.144;24.794;2022-10-23T12:56:25;8.73;;;1.83;;
5349;SDS011;2697;42.144;24.794;2022-10-23T12:58:52;10.97;;;2.10;;
5349;SDS011;2697;42.144;24.794;2022-10-23T13:01:22;4.47;;;1.57;;
5349;SDS011;2697;42.144;24.794;2022-10-23T13:03:49;13.20;;;2.40;;
5349;SDS011;2697;42.144;24.794;2022-10-23T13:06:16;13.50;;;2.47;;
5349;SDS011;2697;42.144;24.794;2022-10-23T13:08:44;4.70;;;2.00;;
5349;SDS011;2697;42.144;24.794;2022-10-23T13:11:15;4.07;;;2.33;;
5349;SDS011;2697;42.144;24.794;2022-10-23T13:13:44;2.07;;;1.87;;
5349;SDS011;2697;42.144;24.794;2022-10-23T13:16:13;3.17;;;2.40;;
5349;SDS011;2697;42.144;24.794;2022-10-23T13:18:40;3.83;;;2.27;;
5349;SDS011;2697;42.144;24.794;2022-10-23T13:21:16;6.63;;;2.63;;
5349;SDS011;2697;42.144;24.794;2022-10-23T13:23:46;6.43;;;1.80;;
5349;SDS011;2697;42.144;24.794;2022-10-23T13:28:53;8.63;;;2.33;;
5349;SDS011;2697;42.144;24.794;2022-10-23T13:33:45;2.90;;;2.00;;
5349;SDS011;2697;42.144;24.794;2022-10-23T13:38:42;3.80;;;2.00;;
5349;SDS011;2697;42.144;24.794;2022-10-23T13:41:15;13.77;;;2.10;;
5349;SDS011;2697;42.144;24.794;2022-10-23T13:43:42;2.57;;;2.00;;
5349;SDS011;2697;42.144;24.794;2022-10-23T13:46:12;2.93;;;1.60;;
5349;SDS011;2697;42.144;24.794;2022-10-23T13:48:39;3.50;;;2.27;;
5349;SDS011;2697;42.144;24.794;2022-10-23T13:51:11;3.70;;;1.70;;
5349;SDS011;2697;42.144;24.794;2022-10-23T13:53:39;5.30;;;1.87;;
5349;SDS011;2697;42.144;24.794;2022-10-23T13:56:04;8.67;;;1.90;;
5349;SDS011;2697;42.144;24.794;2022-10-23T13:58:30;3.40;;;1.43;;
5349;SDS011;2697;42.144;24.794;2022-10-23T14:00:56;7.70;;;2.20;;
5349;SDS011;2697;42.144;24.794;2022-10-23T14:03:22;2.90;;;2.30;;
5349;SDS011;2697;42.144;24.794;2022-10-23T14:05:49;6.30;;;2.13;;
5349;SDS011;2697;42.144;24.794;2022-10-23T14:08:15;5.77;;;2.90;;
5349;SDS011;2697;42.144;24.794;2022-10-23T14:10:40;8.47;;;2.20;;
5349;SDS011;2697;42.144;24.794;2022-10-23T14:13:06;5.80;;;1.80;;
5349;SDS011;2697;42.144;24.794;2022-10-23T14:15:31;7.73;;;2.53;;
5349;SDS011;2697;42.144;24.794;2022-10-23T14:17:56;3.63;;;2.47;;
5349;SDS011;2697;42.144;24.794;2022-10-23T14:20:22;4.60;;;2.17;;
5349;SDS011;2697;42.144;24.794;2022-10-23T14:22:47;4.53;;;2.20;;
5349;SDS011;2697;42.144;24.794;2022-10-23T14:25:13;3.37;;;1.90;;
5349;SDS011;2697;42.144;24.794;2022-10-23T14:27:38;6.47;;;2.30;;
5349;SDS011;2697;42.144;24.794;2022-10-23T14:30:04;7.43;;;2.30;;
5349;SDS011;2697;42.144;24.794;2022-10-23T14:32:29;4.60;;;3.07;;
5349;SDS011;2697;42.144;24.794;2022-10-23T14:34:55;8.57;;;2.47;;
5349;SDS011;2697;42.144;24.794;2022-10-23T14:37:20;7.23;;;2.27;;
5349;SDS011;2697;42.144;24.794;2022-10-23T14:39:46;7.33;;;2.73;;
5349;SDS011;2697;42.144;24.794;2022-10-23T14:42:12;3.77;;;2.37;;
5349;SDS011;2697;42.144;24.794;2022-10-23T14:44:38;5.50;;;2.27;;
5349;SDS011;2697;42.144;24.794;2022-10-23T14:47:04;4.97;;;2.27;;
5349;SDS011;2697;42.144;24.794;2022-10-23T14:49:30;4.73;;;2.13;;
5349;SDS011;2697;42.144;24.794;2022-10-23T14:51:56;5.00;;;2.10;;
5349;SDS011;2697;42.144;24.794;2022-10-23T14:54:21;4.70;;;2.90;;
5349;SDS011;2697;42.144;24.794;2022-10-23T14:56:47;2.77;;;1.90;;
5349;SDS011;2697;42.144;24.794;2022-10-23T14:59:13;9.63;;;2.07;;
5349;SDS011;2697;42.144;24.794;2022-10-23T15:01:40;11.17;;;3.40;;
5349;SDS011;2697;42.144;24.794;2022-10-23T15:04:08;10.43;;;2.20;;
5349;SDS011;2697;42.144;24.794;2022-10-23T15:06:34;2.57;;;2.20;;
5349;SDS011;2697;42.144;24.794;2022-10-23T15:09:00;16.90;;;3.90;;
5349;SDS011;2697;42.144;24.794;2022-10-23T15:11:27;7.73;;;2.13;;
5349;SDS011;2697;42.144;24.794;2022-10-23T15:13:52;8.90;;;2.40;;
5349;SDS011;2697;42.144;24.794;2022-10-23T15:16:19;13.30;;;3.17;;
5349;SDS011;2697;42.144;24.794;2022-10-23T15:18:45;5.57;;;2.67;;
5349;SDS011;2697;42.144;24.794;2022-10-23T15:21:11;20.33;;;2.27;;
5349;SDS011;2697;42.144;24.794;2022-10-23T15:23:38;3.50;;;2.30;;
5349;SDS011;2697;42.144;24.794;2022-10-23T15:26:06;5.30;;;2.30;;
5349;SDS011;2697;42.144;24.794;2022-10-23T15:28:34;7.23;;;3.10;;
5349;SDS011;2697;42.144;24.794;2022-10-23T15:30:59;8.93;;;3.30;;
5349;SDS011;2697;42.144;24.794;2022-10-23T15:33:25;3.50;;;1.90;;
5349;SDS011;2697;42.144;24.794;2022-10-23T15:35:51;5.20;;;2.07;;
5349;SDS011;2697;42.144;24.794;2022-10-23T15:38:17;4.27;;;2.10;;
5349;SDS011;2697;42.144;24.794;2022-10-23T15:40:43;9.00;;;2.10;;
5349;SDS011;2697;42.144;24.794;2022-10-23T15:43:10;2.77;;;1.67;;
5349;SDS011;2697;42.144;24.794;2022-10-23T15:45:36;24.23;;;2.60;;
5349;SDS011;2697;42.144;24.794;2022-10-23T15:48:02;3.60;;;2.07;;
5349;SDS011;2697;42.144;24.794;2022-10-23T15:50:28;4.63;;;2.50;;
5349;SDS011;2697;42.144;24.794;2022-10-23T15:52:53;4.20;;;2.20;;
5349;SDS011;2697;42.144;24.794;2022-10-23T15:55:19;12.17;;;2.33;;
5349;SDS011;2697;42.144;24.794;2022-10-23T15:57:45;6.47;;;1.73;;
5349;SDS011;2697;42.144;24.794;2022-10-23T16:00:11;18.90;;;2.03;;
5349;SDS011;2697;42.144;24.794;2022-10-23T16:02:37;19.20;;;2.17;;
5349;SDS011;2697;42.144;24.794;2022-10-23T16:05:03;5.67;;;2.50;;
5349;SDS011;2697;42.144;24.794;2022-10-23T16:07:29;8.00;;;3.23;;
5349;SDS011;2697;42.144;24.794;2022-10-23T16:09:55;7.47;;;2.80;;
5349;SDS011;2697;42.144;24.794;2022-10-23T16:12:20;8.93;;;3.20;;
5349;SDS011;2697;42.144;24.794;2022-10-23T16:14:46;5.60;;;2.40;;
5349;SDS011;2697;42.144;24.794;2022-10-23T16:17:11;10.53;;;2.60;;
5349;SDS011;2697;42.144;24.794;2022-10-23T16:19:38;21.77;;;4.80;;
5349;SDS011;2697;42.144;24.794;2022-10-23T16:22:04;4.50;;;3.30;;
5349;SDS011;2697;42.144;24.794;2022-10-23T16:24:30;5.13;;;3.10;;
5349;SDS011;2697;42.144;24.794;2022-10-23T16:26:55;4.60;;;2.90;;
5349;SDS011;2697;42.144;24.794;2022-10-23T16:29:21;8.67;;;3.80;;
5349;SDS011;2697;42.144;24.794;2022-10-23T16:31:49;6.83;;;2.40;;
5349;SDS011;2697;42.144;24.794;2022-10-23T16:34:16;4.00;;;2.00;;
5349;SDS011;2697;42.144;24.794;2022-10-23T16:36:41;3.37;;;2.00;;
5349;SDS011;2697;42.144;24.794;2022-10-23T16:39:08;7.23;;;2.70;;
5349;SDS011;2697;42.144;24.794;2022-10-23T16:41:34;4.67;;;2.30;;
5349;SDS011;2697;42.144;24.794;2022-10-23T16:44:00;7.57;;;3.03;;
5349;SDS011;2697;42.144;24.794;2022-10-23T16:46:25;11.10;;;2.40;;
5349;SDS011;2697;42.144;24.794;2022-10-23T16:48:51;7.23;;;2.33;;
5349;SDS011;2697;42.144;24.794;2022-10-23T16:51:18;6.00;;;2.30;;
5349;SDS011;2697;42.144;24.794;2022-10-23T16:53:45;14.80;;;2.47;;
5349;SDS011;2697;42.144;24.794;2022-10-23T16:56:12;6.20;;;2.63;;
5349;SDS011;2697;42.144;24.794;2022-10-23T16:58:39;7.63;;;3.70;;
5349;SDS011;2697;42.144;24.794;2022-10-23T17:01:07;6.30;;;3.87;;
5349;SDS011;2697;42.144;24.794;2022-10-23T17:03:35;8.60;;;2.37;;
5349;SDS011;2697;42.144;24.794;2022-10-23T17:06:03;3.93;;;2.30;;
5349;SDS011;2697;42.144;24.794;2022-10-23T17:08:31;16.10;;;2.80;;
5349;SDS011;2697;42.144;24.794;2022-10-23T17:11:13;3.77;;;2.30;;
5349;SDS011;2697;42.144;24.794;2022-10-23T17:13:53;7.30;;;3.00;;
5349;SDS011;2697;42.144;24.794;2022-10-23T17:16:23;9.33;;;3.50;;